Time;durP1;ratioP1;P1;durP2;ratioP2;P2;SDS_P1;SDS_P2;PMS_P1;PMS_P2;Temp;Humidity;BMP_temperature;BMP_pressure;BME280_temperature;BME280_humidity;BME280_pressure;Samples;Min_cycle;Max_cycle;Signal;HPM_P1;HPM_P2
2021/04/09 00:01:21;;;;;;;9.10;4.75;;;4.10;76.50;;;;;;5080198;28;20075;-74
2021/04/09 00:03:48;;;;;;;10.25;5.38;;;4.10;76.90;;;;;;5092433;28;20516;-75
2021/04/09 00:06:14;;;;;;;10.73;5.70;;;4.10;78.20;;;;;;5085603;28;20087;-75
2021/04/09 00:08:41;;;;;;;10.85;5.55;;;4.00;78.40;;;;;;5084105;28;20118;-76
2021/04/09 00:11:08;;;;;;;9.55;5.65;;;4.00;78.30;;;;;;5078285;28;20132;-76
2021/04/09 00:13:34;;;;;;;10.65;5.10;;;4.00;78.30;;;;;;5089347;28;20131;-76
2021/04/09 00:16:02;;;;;;;9.07;5.32;;;4.00;78.80;;;;;;5078000;28;20067;-74
2021/04/09 00:18:28;;;;;;;8.98;4.90;;;3.90;79.10;;;;;;5083509;28;20091;-75
2021/04/09 00:20:55;;;;;;;11.25;5.93;;;3.90;79.60;;;;;;5074013;28;20056;-74
2021/04/09 00:23:22;;;;;;;9.73;5.13;;;3.90;80.40;;;;;;5088989;28;20048;-76
2021/04/09 00:25:48;;;;;;;8.52;4.70;;;3.90;81.00;;;;;;5072352;28;20137;-75
2021/04/09 00:28:15;;;;;;;10.80;5.57;;;3.90;81.20;;;;;;5079943;28;20071;-74
2021/04/09 00:30:41;;;;;;;10.18;5.20;;;3.80;81.60;;;;;;5081503;28;20151;-75
2021/04/09 00:33:09;;;;;;;10.15;5.85;;;3.90;82.10;;;;;;5087613;28;20131;-74
2021/04/09 00:35:36;;;;;;;12.60;5.72;;;4.00;81.00;;;;;;5075815;28;20087;-74
2021/04/09 00:38:02;;;;;;;8.70;5.47;;;3.90;80.20;;;;;;5087182;28;20115;-74
2021/04/09 00:40:29;;;;;;;10.57;5.45;;;3.90;80.50;;;;;;5073500;28;20083;-74
2021/04/09 00:42:56;;;;;;;10.43;5.85;;;3.80;80.50;;;;;;5085648;28;20131;-74
2021/04/09 00:45:23;;;;;;;10.38;5.85;;;3.80;80.40;;;;;;5075629;28;20190;-77
2021/04/09 00:47:50;;;;;;;9.05;5.43;;;3.70;81.10;;;;;;5088393;28;20068;-74
2021/04/09 00:50:18;;;;;;;9.85;5.65;;;3.70;82.30;;;;;;5079664;28;20084;-75
2021/04/09 00:52:45;;;;;;;9.02;5.25;;;3.70;82.30;;;;;;5080768;28;20168;-75
2021/04/09 00:55:13;;;;;;;10.18;5.60;;;3.70;82.60;;;;;;5087345;28;20127;-74
2021/04/09 00:57:43;;;;;;;9.50;5.13;;;3.60;83.00;;;;;;5075463;28;20101;-76
2021/04/09 01:00:12;;;;;;;11.07;5.80;;;3.70;82.80;;;;;;5085192;28;20140;-75
2021/04/09 01:02:39;;;;;;;12.18;6.63;;;3.60;82.90;;;;;;5082760;28;20083;-75
2021/04/09 01:05:08;;;;;;;10.25;6.22;;;3.60;82.80;;;;;;5077011;28;20091;-75
2021/04/09 01:07:36;;;;;;;10.35;6.65;;;3.60;82.90;;;;;;5081667;28;20113;-75
2021/04/09 01:10:05;;;;;;;11.48;6.13;;;3.60;82.90;;;;;;5083188;28;20132;-75
2021/04/09 01:12:31;;;;;;;11.57;6.57;;;3.50;83.20;;;;;;5083651;28;20048;-74
2021/04/09 01:14:59;;;;;;;11.43;6.22;;;3.50;83.50;;;;;;5083456;28;20119;-75
2021/04/09 01:17:32;;;;;;;12.65;6.35;;;3.60;82.80;;;;;;5090653;28;20083;-75
2021/04/09 01:20:28;;;;;;;12.10;6.07;;;3.50;83.60;;;;;;5080156;28;20558;-74
2021/04/09 01:23:22;;;;;;;11.70;6.50;;;3.50;84.50;;;;;;5083001;28;20087;-75
2021/04/09 01:26:29;;;;;;;11.95;6.55;;;3.50;85.20;;;;;;5071961;28;20490;-74
2021/04/09 01:29:28;;;;;;;11.63;6.00;;;3.50;85.40;;;;;;5079832;28;20565;-75
2021/04/09 01:31:58;;;;;;;10.70;6.07;;;3.50;85.60;;;;;;5084498;28;20581;-76
2021/04/09 01:34:31;;;;;;;12.30;5.85;;;3.50;85.90;;;;;;5079738;28;20075;-76
2021/04/09 01:37:05;;;;;;;9.55;5.50;;;3.50;85.90;;;;;;5078290;28;20114;-74
2021/04/09 01:39:36;;;;;;;11.30;6.72;;;3.50;85.80;;;;;;5087612;28;20083;-75
2021/04/09 01:42:07;;;;;;;10.98;7.20;;;3.50;84.40;;;;;;5071570;28;20157;-76
2021/04/09 01:44:36;;;;;;;12.57;6.78;;;3.50;84.20;;;;;;5087869;28;20091;-75
2021/04/09 01:47:05;;;;;;;10.57;5.95;;;3.40;84.10;;;;;;5073675;28;20485;-75
2021/04/09 01:49:35;;;;;;;11.30;5.70;;;3.30;85.20;;;;;;5087965;28;20095;-75
2021/04/09 01:52:03;;;;;;;11.15;5.85;;;3.30;86.00;;;;;;5076529;28;20557;-75
2021/04/09 01:54:31;;;;;;;10.02;5.50;;;3.30;86.20;;;;;;5082198;28;20136;-74
2021/04/09 01:56:59;;;;;;;10.82;6.22;;;3.30;86.40;;;;;;5079509;28;20139;-76
2021/04/09 01:59:26;;;;;;;11.35;6.55;;;3.20;87.50;;;;;;5087725;28;20075;-76
2021/04/09 02:01:53;;;;;;;11.60;6.38;;;3.20;86.90;;;;;;5072448;28;20080;-74
2021/04/09 02:04:21;;;;;;;10.38;5.78;;;3.20;85.60;;;;;;5078806;28;20131;-75
2021/04/09 02:06:50;;;;;;;9.07;5.68;;;3.10;86.40;;;;;;5079183;28;20521;-73
2021/04/09 02:09:17;;;;;;;12.15;6.00;;;3.10;87.10;;;;;;5087029;28;20450;-74
2021/04/09 02:11:45;;;;;;;10.88;5.78;;;3.00;87.40;;;;;;5076246;28;20178;-74
2021/04/09 02:14:13;;;;;;;10.07;5.63;;;3.00;87.90;;;;;;5087334;28;20135;-74
2021/04/09 02:16:42;;;;;;;10.35;5.30;;;3.00;88.50;;;;;;5085800;28;20086;-75
2021/04/09 02:19:09;;;;;;;10.05;5.97;;;3.00;88.90;;;;;;5080296;28;20049;-74
2021/04/09 02:21:38;;;;;;;9.55;6.05;;;3.10;88.90;;;;;;5091450;28;20474;-76
2021/04/09 02:24:07;;;;;;;11.93;6.32;;;3.10;89.30;;;;;;5076104;28;20052;-74
2021/04/09 02:26:34;;;;;;;10.00;5.75;;;3.10;89.30;;;;;;5084719;28;20134;-75
2021/04/09 02:29:01;;;;;;;12.85;6.10;;;3.00;89.60;;;;;;5092039;28;20131;-74
2021/04/09 02:31:29;;;;;;;12.52;5.75;;;3.00;90.00;;;;;;5078068;28;20075;-74
2021/04/09 02:33:55;;;;;;;12.55;5.72;;;3.10;90.10;;;;;;5090383;28;20072;-74
2021/04/09 02:36:25;;;;;;;10.32;5.32;;;3.10;89.60;;;;;;5082873;28;20595;-75
2021/04/09 02:38:56;;;;;;;9.23;5.65;;;3.20;88.80;;;;;;5082429;28;20075;-74
2021/04/09 02:41:29;;;;;;;10.27;5.95;;;3.10;88.20;;;;;;5089772;28;20086;-74
2021/04/09 02:43:56;;;;;;;10.45;6.00;;;3.10;88.00;;;;;;5085449;28;20091;-74
2021/04/09 02:46:42;;;;;;;10.35;5.68;;;3.00;87.50;;;;;;5091280;28;20033;-74
2021/04/09 02:49:14;;;;;;;10.23;5.70;;;2.90;87.90;;;;;;5097095;28;20055;-76
2021/04/09 02:51:43;;;;;;;10.20;5.55;;;3.00;88.90;;;;;;5098560;28;20083;-76
2021/04/09 02:54:16;;;;;;;11.50;6.55;;;2.80;89.70;;;;;;5105667;28;20508;-75
2021/04/09 02:56:43;;;;;;;10.55;6.15;;;2.90;90.10;;;;;;5093181;28;21203;-76
2021/04/09 02:59:14;;;;;;;10.73;6.07;;;2.80;90.20;;;;;;5101788;28;20063;-75
2021/04/09 03:01:43;;;;;;;13.88;5.95;;;2.80;90.50;;;;;;5097966;28;20097;-75
2021/04/09 03:04:09;;;;;;;9.77;5.40;;;2.90;90.40;;;;;;5099301;28;20075;-75
2021/04/09 03:06:38;;;;;;;11.43;6.20;;;2.90;90.50;;;;;;5083944;28;20151;-74
2021/04/09 03:09:05;;;;;;;9.77;5.63;;;2.90;90.30;;;;;;5094092;28;20044;-75
2021/04/09 03:11:33;;;;;;;9.40;5.82;;;2.90;89.90;;;;;;5088983;28;20500;-76
2021/04/09 03:14:01;;;;;;;10.40;5.95;;;2.90;89.10;;;;;;5085209;28;20462;-75
2021/04/09 03:16:30;;;;;;;10.57;5.75;;;2.80;89.50;;;;;;5089057;28;20087;-76
2021/04/09 03:18:57;;;;;;;11.45;6.00;;;2.80;89.50;;;;;;5076840;28;20556;-75
2021/04/09 03:21:23;;;;;;;10.98;6.32;;;2.70;90.10;;;;;;5090837;28;20133;-74
2021/04/09 03:23:50;;;;;;;10.95;5.95;;;2.70;90.30;;;;;;5078767;28;20103;-75
2021/04/09 03:26:16;;;;;;;11.80;6.15;;;2.70;90.40;;;;;;5093132;28;20083;-75
2021/04/09 03:28:44;;;;;;;11.10;5.75;;;2.70;90.70;;;;;;5081744;28;20150;-76
2021/04/09 03:31:10;;;;;;;9.32;5.78;;;2.60;90.80;;;;;;5092634;28;20098;-75
2021/04/09 03:33:37;;;;;;;11.30;5.60;;;2.70;91.20;;;;;;5089517;28;20067;-74
2021/04/09 03:36:05;;;;;;;11.10;5.93;;;2.60;90.80;;;;;;5083286;28;20076;-75
2021/04/09 03:38:31;;;;;;;9.25;5.40;;;2.70;90.90;;;;;;5090392;28;20397;-77
2021/04/09 03:40:58;;;;;;;11.38;5.72;;;2.70;90.90;;;;;;5077461;28;20086;-75
2021/04/09 03:43:25;;;;;;;10.00;5.85;;;2.70;91.10;;;;;;5088724;28;20158;-77
2021/04/09 03:45:52;;;;;;;9.43;5.82;;;2.70;91.20;;;;;;5078719;28;20080;-76
2021/04/09 03:48:19;;;;;;;9.50;5.43;;;2.70;91.10;;;;;;5077420;28;20556;-75
2021/04/09 03:50:45;;;;;;;11.10;5.60;;;2.70;91.20;;;;;;5079250;28;20103;-75
2021/04/09 03:53:12;;;;;;;9.68;5.20;;;2.70;91.10;;;;;;5085211;28;20131;-77
2021/04/09 03:55:38;;;;;;;10.70;5.82;;;2.70;91.10;;;;;;5081020;28;20146;-75
2021/04/09 03:58:05;;;;;;;10.57;5.70;;;2.70;91.10;;;;;;5075946;28;20075;-75
2021/04/09 04:00:31;;;;;;;9.40;5.72;;;2.60;91.30;;;;;;5085962;28;20087;-75
2021/04/09 04:02:59;;;;;;;10.85;5.47;;;2.70;91.30;;;;;;5074064;28;20048;-75
2021/04/09 04:05:26;;;;;;;9.82;5.75;;;2.70;91.20;;;;;;5081497;28;20075;-76
2021/04/09 04:07:52;;;;;;;10.02;6.07;;;2.70;91.20;;;;;;5080726;28;20127;-75
2021/04/09 04:10:19;;;;;;;9.82;5.68;;;2.70;91.10;;;;;;5089322;28;20083;-75
2021/04/09 04:12:46;;;;;;;10.52;6.47;;;2.70;91.10;;;;;;5073482;28;20128;-76
2021/04/09 04:15:12;;;;;;;9.10;5.57;;;2.70;91.00;;;;;;5080238;28;20540;-73
2021/04/09 04:17:39;;;;;;;11.38;5.90;;;2.70;91.00;;;;;;5082740;28;20075;-76
2021/04/09 04:20:08;;;;;;;11.63;6.22;;;2.70;90.80;;;;;;5103116;28;20044;-75
2021/04/09 04:22:35;;;;;;;10.68;5.68;;;2.70;91.10;;;;;;5075757;28;20083;-76
2021/04/09 04:25:02;;;;;;;10.02;5.70;;;2.60;91.10;;;;;;5088469;28;20131;-75
2021/04/09 04:27:28;;;;;;;8.85;5.30;;;2.60;91.30;;;;;;5082643;28;20076;-76
2021/04/09 04:29:55;;;;;;;9.07;5.53;;;2.60;91.30;;;;;;5081354;28;21529;-76
2021/04/09 04:32:21;;;;;;;9.50;5.75;;;2.50;91.10;;;;;;5085406;28;20528;-75
2021/04/09 04:34:48;;;;;;;11.38;5.80;;;2.60;91.60;;;;;;5088512;28;20075;-75
2021/04/09 04:37:16;;;;;;;10.38;6.05;;;2.60;91.30;;;;;;5073468;28;20126;-76
2021/04/09 04:39:42;;;;;;;9.70;5.72;;;2.60;91.20;;;;;;5073377;28;20128;-74
2021/04/09 04:42:09;;;;;;;8.85;5.65;;;2.60;91.30;;;;;;5073143;28;20083;-76
2021/04/09 04:44:36;;;;;;;9.95;5.88;;;2.60;91.40;;;;;;5073467;28;20084;-76
2021/04/09 04:47:03;;;;;;;10.43;5.90;;;2.60;91.30;;;;;;5073461;28;20076;-74
2021/04/09 04:49:29;;;;;;;10.27;5.40;;;2.60;91.00;;;;;;5073450;28;20131;-75
2021/04/09 04:51:56;;;;;;;9.77;5.45;;;2.70;91.10;;;;;;5073388;28;20135;-76
2021/04/09 04:54:23;;;;;;;10.52;5.82;;;2.70;91.10;;;;;;5073008;28;20079;-76
2021/04/09 04:56:50;;;;;;;9.70;5.75;;;2.60;91.20;;;;;;5073112;28;20137;-76
2021/04/09 04:59:17;;;;;;;8.68;5.70;;;2.50;91.30;;;;;;5073034;28;20087;-75
2021/04/09 05:01:43;;;;;;;9.75;5.50;;;2.60;91.20;;;;;;5073017;28;20152;-75
2021/04/09 05:04:10;;;;;;;9.32;5.78;;;2.50;91.30;;;;;;5073153;28;20083;-74
2021/04/09 05:06:36;;;;;;;11.55;5.55;;;2.50;91.60;;;;;;5073079;28;20142;-75
2021/04/09 05:09:04;;;;;;;11.38;5.88;;;2.50;91.70;;;;;;5073130;28;20080;-76
2021/04/09 05:11:31;;;;;;;10.13;5.80;;;2.50;91.50;;;;;;5073026;28;20095;-75
2021/04/09 05:13:58;;;;;;;11.35;5.60;;;2.60;91.50;;;;;;5073038;28;20092;-74
2021/04/09 05:16:25;;;;;;;9.15;5.72;;;2.50;91.60;;;;;;5072038;28;20127;-75
2021/04/09 05:18:51;;;;;;;10.73;5.78;;;2.60;91.60;;;;;;5072572;28;20127;-75
2021/04/09 05:21:18;;;;;;;12.63;6.30;;;2.60;91.80;;;;;;5072664;28;20131;-75
2021/04/09 05:23:45;;;;;;;9.75;6.38;;;2.60;91.70;;;;;;5072547;28;20512;-74
2021/04/09 05:26:12;;;;;;;13.20;7.10;;;2.70;91.60;;;;;;5073004;28;20094;-73
2021/04/09 05:28:39;;;;;;;10.43;5.97;;;2.70;91.10;;;;;;5072894;28;20534;-74
2021/04/09 05:31:06;;;;;;;12.30;5.88;;;2.70;91.40;;;;;;5072725;28;20147;-74
2021/04/09 05:33:33;;;;;;;9.50;5.70;;;2.80;91.20;;;;;;5072939;28;20153;-74
2021/04/09 05:35:59;;;;;;;10.35;6.10;;;2.80;91.50;;;;;;5072578;28;20569;-74
2021/04/09 05:38:26;;;;;;;10.10;5.82;;;2.70;91.20;;;;;;5072597;28;20501;-74
2021/04/09 05:40:52;;;;;;;10.88;6.00;;;2.70;90.90;;;;;;5072665;28;20091;-74
2021/04/09 05:43:19;;;;;;;10.82;6.13;;;2.80;91.00;;;;;;5072618;28;20127;-74
2021/04/09 05:45:46;;;;;;;10.38;6.00;;;2.70;91.10;;;;;;5072702;28;20084;-74
2021/04/09 05:48:15;;;;;;;10.18;5.90;;;2.70;91.10;;;;;;5076710;28;20132;-74
2021/04/09 05:50:42;;;;;;;8.45;5.63;;;2.70;91.50;;;;;;5076690;28;20051;-76
2021/04/09 05:53:09;;;;;;;11.25;6.40;;;2.70;91.60;;;;;;5077324;28;20135;-75
2021/04/09 05:55:36;;;;;;;10.32;5.78;;;2.70;91.80;;;;;;5076747;28;20055;-75
2021/04/09 05:58:02;;;;;;;10.15;5.65;;;2.70;91.80;;;;;;5076492;28;20079;-76
2021/04/09 06:00:29;;;;;;;10.80;6.63;;;2.90;91.90;;;;;;5076316;28;20525;-75
2021/04/09 06:02:56;;;;;;;10.90;6.55;;;2.80;91.90;;;;;;5076321;28;20127;-75
2021/04/09 06:05:23;;;;;;;11.23;6.68;;;2.90;91.60;;;;;;5076030;28;20088;-76
2021/04/09 06:07:50;;;;;;;10.13;6.63;;;3.00;91.30;;;;;;5076161;28;20449;-75
2021/04/09 06:10:16;;;;;;;10.82;5.82;;;3.00;91.30;;;;;;5096571;28;20136;-74
2021/04/09 06:12:43;;;;;;;11.55;6.05;;;3.10;91.60;;;;;;5096372;28;20136;-75
2021/04/09 06:15:12;;;;;;;12.27;6.60;;;3.10;91.50;;;;;;5096515;28;20075;-74
2021/04/09 06:17:39;;;;;;;9.23;5.68;;;3.20;91.90;;;;;;5096414;28;20047;-75
2021/04/09 06:20:08;;;;;;;10.73;6.20;;;3.30;91.90;;;;;;5096226;28;20519;-75
2021/04/09 06:22:35;;;;;;;11.60;6.13;;;3.40;91.60;;;;;;5096647;28;20131;-75
2021/04/09 06:25:05;;;;;;;12.30;6.32;;;3.50;91.20;;;;;;5096231;28;20196;-75
2021/04/09 06:27:31;;;;;;;10.70;5.90;;;3.50;91.20;;;;;;5096503;28;20079;-74
2021/04/09 06:29:58;;;;;;;10.05;6.32;;;3.60;91.20;;;;;;5096222;28;20082;-76
2021/04/09 06:32:25;;;;;;;12.25;6.25;;;3.60;91.30;;;;;;5096133;28;20068;-77
2021/04/09 06:34:51;;;;;;;12.52;6.60;;;3.70;91.20;;;;;;5096117;28;20184;-74
2021/04/09 06:37:19;;;;;;;9.55;6.07;;;3.80;91.10;;;;;;5096105;28;20139;-76
2021/04/09 06:39:46;;;;;;;9.73;6.28;;;3.90;91.20;;;;;;5095839;28;20490;-76
2021/04/09 06:42:16;;;;;;;11.75;5.95;;;4.00;91.30;;;;;;5096041;28;20079;-76
2021/04/09 06:44:43;;;;;;;11.68;6.40;;;4.20;91.00;;;;;;5097170;28;20482;-74
2021/04/09 06:47:09;;;;;;;10.63;6.13;;;4.30;90.90;;;;;;5079997;28;20477;-75
2021/04/09 06:49:36;;;;;;;11.30;6.00;;;4.30;90.60;;;;;;5075898;28;20087;-75
2021/04/09 06:52:03;;;;;;;9.05;6.03;;;4.40;90.30;;;;;;5075484;28;20126;-76
2021/04/09 06:54:31;;;;;;;11.05;6.28;;;4.50;90.10;;;;;;5075699;28;20044;-74
2021/04/09 06:56:58;;;;;;;10.05;5.90;;;4.50;90.20;;;;;;5075533;28;20044;-74
2021/04/09 06:59:30;;;;;;;9.23;5.80;;;4.50;90.50;;;;;;5074328;28;20140;-75
2021/04/09 07:01:58;;;;;;;10.95;6.03;;;4.60;90.60;;;;;;5075440;28;20486;-75
2021/04/09 07:04:24;;;;;;;10.45;6.10;;;4.70;90.40;;;;;;5075268;28;20048;-74
2021/04/09 07:06:52;;;;;;;10.25;5.82;;;4.90;90.30;;;;;;5075246;28;20087;-74
2021/04/09 07:09:19;;;;;;;10.93;6.10;;;5.10;90.10;;;;;;5075311;28;20503;-74
2021/04/09 07:11:51;;;;;;;11.52;5.82;;;5.20;89.40;;;;;;5075420;28;20135;-75
2021/04/09 07:14:17;;;;;;;11.30;6.10;;;5.40;89.00;;;;;;5075179;28;20426;-75
2021/04/09 07:16:58;;;;;;;9.82;5.82;;;5.60;88.40;;;;;;5075166;28;20133;-74
2021/04/09 07:19:35;;;;;;;9.57;5.82;;;5.70;88.10;;;;;;5075092;28;20127;-75
2021/04/09 07:22:04;;;;;;;13.88;6.15;;;5.80;87.60;;;;;;5075043;28;20161;-74
2021/04/09 07:24:31;;;;;;;11.60;5.90;;;5.90;87.80;;;;;;5074722;28;20098;-75
2021/04/09 07:27:00;;;;;;;10.60;6.18;;;6.10;87.80;;;;;;5074845;28;20545;-75
2021/04/09 07:29:47;;;;;;;10.30;5.47;;;6.20;87.50;;;;;;5074993;28;20127;-74
2021/04/09 07:32:28;;;;;;;9.13;5.95;;;6.30;87.10;;;;;;5074573;28;20090;-74
2021/04/09 07:34:59;;;;;;;10.07;5.90;;;6.40;86.30;;;;;;5074885;28;20091;-73
2021/04/09 07:37:27;;;;;;;10.30;6.03;;;6.60;86.30;;;;;;5074767;28;20470;-74
2021/04/09 07:40:00;;;;;;;10.35;6.72;;;6.70;86.30;;;;;;5074705;28;20087;-75
2021/04/09 07:42:34;;;;;;;10.50;6.40;;;6.80;85.80;;;;;;5074960;28;20080;-74
2021/04/09 07:45:05;;;;;;;11.15;6.45;;;6.80;85.40;;;;;;5074441;28;20558;-74
2021/04/09 07:47:32;;;;;;;10.68;6.82;;;7.00;84.70;;;;;;5074397;28;20409;-74
2021/04/09 07:50:09;;;;;;;11.43;6.43;;;7.10;84.50;;;;;;5074226;28;20088;-74
2021/04/09 07:52:45;;;;;;;10.95;6.60;;;7.10;84.40;;;;;;5074391;28;20091;-75
2021/04/09 07:55:21;;;;;;;10.18;6.50;;;7.30;84.80;;;;;;5074304;28;20052;-75
2021/04/09 07:57:49;;;;;;;11.90;6.43;;;7.40;83.80;;;;;;5074568;28;20072;-74
2021/04/09 08:00:25;;;;;;;11.25;6.18;;;7.50;83.10;;;;;;5074512;28;20139;-74
2021/04/09 08:02:53;;;;;;;9.55;6.32;;;7.50;82.90;;;;;;5074502;28;20132;-74
2021/04/09 08:05:24;;;;;;;9.85;5.88;;;7.70;83.30;;;;;;5074095;28;20064;-73
2021/04/09 08:07:51;;;;;;;11.85;6.35;;;7.80;83.20;;;;;;5074344;28;20084;-75
2021/04/09 08:10:19;;;;;;;10.85;6.38;;;7.90;82.90;;;;;;5073821;28;20079;-74
2021/04/09 08:12:53;;;;;;;12.40;6.50;;;8.10;82.30;;;;;;5073822;28;20095;-74
2021/04/09 08:15:23;;;;;;;12.00;6.90;;;8.10;81.40;;;;;;5074133;28;20113;-73
2021/04/09 08:18:02;;;;;;;11.60;6.57;;;8.20;79.30;;;;;;5073900;28;20120;-74
2021/04/09 08:20:34;;;;;;;11.07;6.40;;;8.30;79.00;;;;;;5072942;28;20475;-75
2021/04/09 08:23:04;;;;;;;11.75;6.93;;;8.20;79.00;;;;;;5073724;28;20044;-75
2021/04/09 08:25:31;;;;;;;10.00;6.25;;;8.30;78.30;;;;;;5073502;28;20091;-74
2021/04/09 08:28:01;;;;;;;12.38;7.28;;;8.30;79.50;;;;;;5073631;28;20123;-74
2021/04/09 08:30:29;;;;;;;10.15;6.30;;;8.50;79.10;;;;;;5073501;28;20144;-74
2021/04/09 08:32:57;;;;;;;9.60;6.30;;;8.50;79.70;;;;;;5073417;28;20091;-73
2021/04/09 08:35:24;;;;;;;11.18;7.13;;;8.50;78.50;;;;;;5073665;28;20048;-75
2021/04/09 08:37:52;;;;;;;13.90;7.03;;;8.60;78.30;;;;;;5073600;28;20121;-74
2021/04/09 08:40:20;;;;;;;11.77;6.72;;;8.60;77.80;;;;;;5073295;28;20076;-75
2021/04/09 08:42:47;;;;;;;9.88;5.97;;;8.70;78.10;;;;;;5073441;28;20127;-75
2021/04/09 08:45:16;;;;;;;9.80;5.90;;;8.80;77.80;;;;;;5073220;28;20084;-75
2021/04/09 08:47:45;;;;;;;10.93;6.03;;;8.90;76.60;;;;;;5073233;28;20557;-74
2021/04/09 08:50:14;;;;;;;11.20;6.28;;;9.00;72.60;;;;;;5073096;28;20083;-75
2021/04/09 08:52:44;;;;;;;9.95;5.68;;;8.90;72.80;;;;;;5073358;28;20080;-75
2021/04/09 08:55:14;;;;;;;9.98;5.32;;;9.00;72.30;;;;;;5073216;28;20504;-76
2021/04/09 08:57:44;;;;;;;9.38;5.25;;;9.00;72.10;;;;;;5073119;28;20736;-75
2021/04/09 09:00:18;;;;;;;7.85;5.05;;;9.10;71.40;;;;;;5073051;28;20047;-74
2021/04/09 09:02:51;;;;;;;9.47;4.67;;;9.20;70.00;;;;;;5073050;28;20066;-76
2021/04/09 09:05:21;;;;;;;7.88;4.70;;;9.30;69.20;;;;;;5073143;28;20136;-76
2021/04/09 09:07:59;;;;;;;8.75;4.60;;;9.40;68.20;;;;;;5073106;28;20410;-76
2021/04/09 09:10:49;;;;;;;7.88;4.68;;;9.60;67.80;;;;;;5073156;28;20083;-75
2021/04/09 09:13:28;;;;;;;7.72;4.50;;;9.70;68.50;;;;;;5073014;28;20076;-75
2021/04/09 09:16:13;;;;;;;6.97;4.30;;;9.80;69.10;;;;;;5073007;28;20052;-75
2021/04/09 09:18:54;;;;;;;8.50;4.57;;;10.00;68.00;;;;;;5081411;28;20051;-76
2021/04/09 09:21:40;;;;;;;7.95;4.35;;;10.20;67.50;;;;;;5083818;28;20149;-75
2021/04/09 09:24:29;;;;;;;7.93;3.90;;;10.30;66.60;;;;;;5093020;28;20055;-75
2021/04/09 09:27:09;;;;;;;6.70;3.90;;;10.50;65.60;;;;;;5080606;28;20056;-77
2021/04/09 09:29:46;;;;;;;8.63;4.68;;;10.60;62.90;;;;;;5086661;28;20374;-78
2021/04/09 09:32:14;;;;;;;7.95;3.75;;;10.70;62.50;;;;;;5083493;28;20040;-78
2021/04/09 09:34:41;;;;;;;8.07;3.92;;;10.80;61.50;;;;;;5076470;28;20144;-79
2021/04/09 09:37:11;;;;;;;7.50;4.40;;;11.00;60.80;;;;;;5075347;28;20053;-77
2021/04/09 09:39:41;;;;;;;6.35;3.50;;;11.10;60.30;;;;;;5075319;28;20075;-79
2021/04/09 09:42:13;;;;;;;7.25;3.38;;;11.20;59.30;;;;;;5074485;28;20052;-78
2021/04/09 09:44:45;;;;;;;6.60;3.05;;;11.30;58.30;;;;;;5075138;28;20063;-79
2021/04/09 09:47:25;;;;;;;8.27;4.22;;;11.40;58.00;;;;;;5075316;28;20045;-78
2021/04/09 09:50:15;;;;;;;6.78;3.20;;;11.60;55.50;;;;;;5085402;28;20197;-76
2021/04/09 09:52:44;;;;;;;7.30;3.60;;;11.70;55.80;;;;;;5092903;28;20562;-79
2021/04/09 09:55:15;;;;;;;5.45;3.08;;;11.80;55.60;;;;;;5092745;28;20134;-78
2021/04/09 09:57:48;;;;;;;7.57;3.30;;;12.00;54.60;;;;;;5075502;28;20044;-76
2021/04/09 10:00:25;;;;;;;7.50;4.07;;;12.10;54.60;;;;;;5083017;28;20055;-77
2021/04/09 10:03:17;;;;;;;7.05;4.10;;;12.20;51.70;;;;;;5090375;28;20115;-76
2021/04/09 10:05:46;;;;;;;6.95;3.53;;;12.20;52.90;;;;;;5075458;28;20486;-76
2021/04/09 10:08:13;;;;;;;7.20;3.78;;;12.30;51.20;;;;;;5091131;28;20075;-77
2021/04/09 10:10:47;;;;;;;6.40;3.08;;;12.30;51.80;;;;;;5092669;28;20091;-78
2021/04/09 10:13:19;;;;;;;6.95;4.10;;;12.40;52.20;;;;;;5092451;28;20080;-77
2021/04/09 10:15:47;;;;;;;6.57;2.78;;;12.50;52.20;;;;;;5091176;28;20055;-77
2021/04/09 10:18:15;;;;;;;6.93;3.17;;;12.50;51.70;;;;;;5078588;28;20086;-77
2021/04/09 10:20:42;;;;;;;8.05;3.35;;;12.60;50.60;;;;;;5072261;28;20505;-77
2021/04/09 10:23:08;;;;;;;8.18;3.85;;;12.60;50.90;;;;;;5072147;28;20130;-78
2021/04/09 10:25:36;;;;;;;5.18;2.63;;;12.70;50.70;;;;;;5072002;28;20140;-79
2021/04/09 10:28:12;;;;;;;6.03;2.85;;;12.70;50.30;;;;;;5084511;28;20075;-78
2021/04/09 10:30:39;;;;;;;6.32;3.00;;;12.70;49.70;;;;;;5090444;28;20044;-78
2021/04/09 10:33:06;;;;;;;6.10;3.00;;;12.80;47.30;;;;;;5093185;28;20560;-78
2021/04/09 10:35:35;;;;;;;5.95;3.35;;;12.90;46.60;;;;;;5075722;28;20123;-77
2021/04/09 10:38:10;;;;;;;5.65;3.33;;;12.90;47.10;;;;;;5083266;28;20131;-75
2021/04/09 10:40:52;;;;;;;5.70;2.90;;;12.90;46.50;;;;;;5092097;28;20075;-78
2021/04/09 10:43:30;;;;;;;7.22;2.83;;;13.00;46.00;;;;;;5081388;28;20079;-74
2021/04/09 10:46:13;;;;;;;6.93;2.70;;;13.10;45.00;;;;;;5079821;28;20044;-75
2021/04/09 10:48:40;;;;;;;5.75;2.47;;;13.20;43.20;;;;;;5095728;28;20048;-75
2021/04/09 10:51:09;;;;;;;5.78;3.13;;;13.20;41.80;;;;;;5090325;28;20083;-74
2021/04/09 10:53:36;;;;;;;5.68;2.55;;;13.40;40.80;;;;;;5092005;28;20139;-75
2021/04/09 10:56:07;;;;;;;5.80;2.65;;;13.40;41.60;;;;;;5095758;28;20082;-74
2021/04/09 10:58:34;;;;;;;6.00;2.60;;;13.50;41.20;;;;;;5095640;28;20048;-74
2021/04/09 11:01:01;;;;;;;4.57;2.53;;;13.50;40.30;;;;;;5095704;28;20079;-76
2021/04/09 11:03:30;;;;;;;5.78;2.47;;;13.50;40.60;;;;;;5095369;28;20490;-76
2021/04/09 11:05:58;;;;;;;6.80;2.72;;;13.60;40.80;;;;;;5093561;28;20071;-75
2021/04/09 11:08:38;;;;;;;5.00;2.60;;;13.70;39.60;;;;;;5095480;28;20123;-75
2021/04/09 11:11:08;;;;;;;5.32;2.60;;;13.80;40.10;;;;;;5095419;28;20079;-75
2021/04/09 11:13:38;;;;;;;4.35;2.33;;;13.90;39.50;;;;;;5095464;28;20123;-75
2021/04/09 11:16:06;;;;;;;4.63;2.22;;;13.90;39.70;;;;;;5095343;28;20139;-75
2021/04/09 11:18:55;;;;;;;4.78;2.47;;;14.00;39.00;;;;;;5095347;28;20492;-74
2021/04/09 11:21:44;;;;;;;5.20;2.20;;;14.20;39.70;;;;;;5093533;28;20044;-75
2021/04/09 11:24:14;;;;;;;12.13;6.10;;;14.30;39.00;;;;;;5093852;28;20131;-76
2021/04/09 11:26:41;;;;;;;12.27;6.13;;;14.40;38.80;;;;;;5094959;28;20047;-76
2021/04/09 11:29:08;;;;;;;5.35;2.15;;;14.50;39.50;;;;;;5095008;28;20123;-74
2021/04/09 11:31:35;;;;;;;5.43;2.13;;;14.60;38.00;;;;;;5095091;28;20076;-74
2021/04/09 11:34:08;;;;;;;5.40;2.40;;;14.60;38.60;;;;;;5095050;28;20072;-75
2021/04/09 11:36:41;;;;;;;5.07;2.30;;;14.70;37.50;;;;;;5093494;28;20138;-74
2021/04/09 11:39:13;;;;;;;5.40;2.38;;;14.70;37.50;;;;;;5094813;28;20529;-74
2021/04/09 11:41:42;;;;;;;4.85;2.28;;;14.70;38.20;;;;;;5094848;28;20135;-74
2021/04/09 11:44:35;;;;;;;5.15;2.53;;;14.70;38.30;;;;;;5094188;28;20087;-75
2021/04/09 11:47:23;;;;;;;5.70;2.53;;;14.70;38.00;;;;;;5094143;28;20044;-73
2021/04/09 11:50:12;;;;;;;4.57;2.22;;;14.70;38.20;;;;;;5093081;28;20044;-75
2021/04/09 11:52:58;;;;;;;5.97;2.33;;;14.70;38.70;;;;;;5094760;28;20131;-74
2021/04/09 11:55:29;;;;;;;4.20;2.08;;;14.80;38.10;;;;;;5094298;28;20551;-74
2021/04/09 11:57:56;;;;;;;5.75;2.25;;;14.80;38.30;;;;;;5094558;28;20083;-74
2021/04/09 12:00:27;;;;;;;4.95;2.30;;;14.90;38.00;;;;;;5094660;28;20122;-75
2021/04/09 12:03:01;;;;;;;6.28;2.20;;;14.80;37.90;;;;;;5094539;28;20091;-75
2021/04/09 12:05:30;;;;;;;4.45;2.08;;;14.90;38.40;;;;;;5092475;28;20052;-75
2021/04/09 12:07:58;;;;;;;5.07;2.28;;;15.00;38.30;;;;;;5094092;28;20130;-74
2021/04/09 12:10:27;;;;;;;8.95;3.80;;;15.20;37.30;;;;;;5094093;28;20082;-74
2021/04/09 12:12:54;;;;;;;5.68;2.40;;;15.30;36.40;;;;;;5094422;28;20075;-75
2021/04/09 12:15:23;;;;;;;6.53;2.60;;;15.40;37.30;;;;;;5094200;28;20040;-75
2021/04/09 12:17:50;;;;;;;4.35;1.90;;;15.60;36.10;;;;;;5094195;28;20375;-75
2021/04/09 12:20:21;;;;;;;4.95;2.00;;;15.70;36.70;;;;;;5092468;28;20052;-75
2021/04/09 12:22:48;;;;;;;3.78;1.50;;;15.90;35.90;;;;;;5093167;28;20044;-74
2021/04/09 12:25:17;;;;;;;4.55;1.90;;;16.00;35.80;;;;;;5086314;28;20088;-75
2021/04/09 12:27:46;;;;;;;5.38;2.00;;;16.10;35.00;;;;;;5073756;28;20087;-75
2021/04/09 12:30:16;;;;;;;5.68;1.90;;;16.20;33.10;;;;;;5085795;28;20048;-78
2021/04/09 12:32:43;;;;;;;4.47;2.15;;;16.10;34.10;;;;;;5075930;28;20048;-76
2021/04/09 12:35:13;;;;;;;4.55;1.80;;;16.20;34.30;;;;;;5078715;28;20128;-77
2021/04/09 12:37:40;;;;;;;3.95;2.10;;;16.10;33.70;;;;;;5056027;28;20048;-76
2021/04/09 12:40:08;;;;;;;4.47;1.80;;;16.10;34.50;;;;;;5075606;28;20047;-77
2021/04/09 12:42:35;;;;;;;4.35;1.90;;;16.20;34.80;;;;;;5073567;28;20076;-77
2021/04/09 12:45:04;;;;;;;5.65;1.90;;;16.40;34.90;;;;;;5073492;28;20128;-78
2021/04/09 12:47:31;;;;;;;5.25;1.92;;;16.50;34.10;;;;;;5073694;28;20082;-77
2021/04/09 12:49:57;;;;;;;3.67;1.70;;;16.60;33.80;;;;;;5071107;28;20525;-76
2021/04/09 12:52:24;;;;;;;4.10;1.63;;;16.80;32.60;;;;;;5069648;28;20529;-76
2021/04/09 12:54:51;;;;;;;4.00;1.50;;;16.90;32.20;;;;;;5071332;28;20466;-75
2021/04/09 12:57:17;;;;;;;5.78;1.90;;;16.90;32.10;;;;;;5079428;28;20123;-77
2021/04/09 12:59:44;;;;;;;3.40;1.63;;;16.90;31.50;;;;;;5070013;28;20110;-75
2021/04/09 13:02:11;;;;;;;5.82;1.58;;;16.90;31.70;;;;;;5068820;28;20079;-74